sensor_id;sensor_type;location;lat;lon;timestamp;temperature;humidity
47382;DHT22;33128;51.580;5.170;2024-01-15T00:02:06;12.60;99.90
47382;DHT22;33128;51.580;5.170;2024-01-15T00:04:37;12.60;99.90
47382;DHT22;33128;51.580;5.170;2024-01-15T00:07:03;12.60;99.90
47382;DHT22;33128;51.580;5.170;2024-01-15T00:09:28;12.50;99.90
47382;DHT22;33128;51.580;5.170;2024-01-15T00:11:54;12.60;99.90
47382;DHT22;33128;51.580;5.170;2024-01-15T00:14:19;12.50;99.90
47382;DHT22;33128;51.580;5.170;2024-01-15T00:16:46;12.50;99.90
47382;DHT22;33128;51.580;5.170;2024-01-15T00:19:11;12.50;99.90
47382;DHT22;33128;51.580;5.170;2024-01-15T00:21:37;12.50;99.90
47382;DHT22;33128;51.580;5.170;2024-01-15T00:24:02;12.50;99.90
47382;DHT22;33128;51.580;5.170;2024-01-15T00:26:28;12.50;99.90
47382;DHT22;33128;51.580;5.170;2024-01-15T00:28:54;12.50;99.90
47382;DHT22;33128;51.580;5.170;2024-01-15T00:31:19;12.40;99.90
47382;DHT22;33128;51.580;5.170;2024-01-15T00:33:45;12.40;99.90
47382;DHT22;33128;51.580;5.170;2024-01-15T00:36:11;12.40;99.90
47382;DHT22;33128;51.580;5.170;2024-01-15T00:38:36;12.40;99.90
47382;DHT22;33128;51.580;5.170;2024-01-15T00:41:02;12.40;99.90
47382;DHT22;33128;51.580;5.170;2024-01-15T00:43:28;12.40;99.90
47382;DHT22;33128;51.580;5.170;2024-01-15T00:45:54;12.30;99.90
47382;DHT22;33128;51.580;5.170;2024-01-15T00:48:19;12.30;99.90
47382;DHT22;33128;51.580;5.170;2024-01-15T00:50:45;12.30;99.90
47382;DHT22;33128;51.580;5.170;2024-01-15T00:53:13;12.30;99.90
47382;DHT22;33128;51.580;5.170;2024-01-15T00:55:39;12.30;99.90
47382;DHT22;33128;51.580;5.170;2024-01-15T00:58:04;12.30;99.90
47382;DHT22;33128;51.580;5.170;2024-01-15T01:00:30;12.30;99.90
47382;DHT22;33128;51.580;5.170;2024-01-15T01:02:55;12.20;99.90
47382;DHT22;33128;51.580;5.170;2024-01-15T01:05:21;12.20;99.90
47382;DHT22;33128;51.580;5.170;2024-01-15T01:07:46;12.20;99.90
47382;DHT22;33128;51.580;5.170;2024-01-15T01:10:12;12.20;99.90
47382;DHT22;33128;51.580;5.170;2024-01-15T01:12:37;12.20;99.90
47382;DHT22;33128;51.580;5.170;2024-01-15T01:15:03;12.20;99.90
47382;DHT22;33128;51.580;5.170;2024-01-15T01:17:29;12.20;99.90
47382;DHT22;33128;51.580;5.170;2024-01-15T01:19:56;12.20;99.90
47382;DHT22;33128;51.580;5.170;2024-01-15T01:22:21;12.10;99.90
47382;DHT22;33128;51.580;5.170;2024-01-15T01:24:47;12.20;99.90
47382;DHT22;33128;51.580;5.170;2024-01-15T01:27:21;12.20;99.90
47382;DHT22;33128;51.580;5.170;2024-01-15T01:29:47;12.20;99.90
47382;DHT22;33128;51.580;5.170;2024-01-15T01:32:13;12.20;99.90
47382;DHT22;33128;51.580;5.170;2024-01-15T01:34:41;12.30;99.90
47382;DHT22;33128;51.580;5.170;2024-01-15T01:37:08;12.30;99.90
47382;DHT22;33128;51.580;5.170;2024-01-15T01:39:33;12.30;99.90
47382;DHT22;33128;51.580;5.170;2024-01-15T01:41:59;12.30;99.90
47382;DHT22;33128;51.580;5.170;2024-01-15T01:44:25;12.30;99.90
47382;DHT22;33128;51.580;5.170;2024-01-15T01:46:50;12.20;99.90
47382;DHT22;33128;51.580;5.170;2024-01-15T01:49:16;12.20;99.90
47382;DHT22;33128;51.580;5.170;2024-01-15T01:51:43;12.20;99.90
47382;DHT22;33128;51.580;5.170;2024-01-15T01:54:09;12.20;99.90
47382;DHT22;33128;51.580;5.170;2024-01-15T01:56:37;12.10;99.90
47382;DHT22;33128;51.580;5.170;2024-01-15T01:59:04;12.10;99.90
47382;DHT22;33128;51.580;5.170;2024-01-15T02:01:31;12.20;99.90
47382;DHT22;33128;51.580;5.170;2024-01-15T02:03:56;12.10;99.90
47382;DHT22;33128;51.580;5.170;2024-01-15T02:06:28;12.10;99.90
47382;DHT22;33128;51.580;5.170;2024-01-15T02:08:57;12.10;99.90
47382;DHT22;33128;51.580;5.170;2024-01-15T02:11:23;12.10;99.90
47382;DHT22;33128;51.580;5.170;2024-01-15T02:13:48;12.10;99.90
47382;DHT22;33128;51.580;5.170;2024-01-15T02:16:14;12.10;99.90
47382;DHT22;33128;51.580;5.170;2024-01-15T02:18:41;12.10;99.90
47382;DHT22;33128;51.580;5.170;2024-01-15T02:21:07;12.10;99.90
47382;DHT22;33128;51.580;5.170;2024-01-15T02:23:32;12.10;99.90
47382;DHT22;33128;51.580;5.170;2024-01-15T02:25:58;12.10;99.90
47382;DHT22;33128;51.580;5.170;2024-01-15T02:28:24;12.00;99.90
47382;DHT22;33128;51.580;5.170;2024-01-15T02:30:49;12.00;99.90
47382;DHT22;33128;51.580;5.170;2024-01-15T02:33:15;12.00;99.90
47382;DHT22;33128;51.580;5.170;2024-01-15T02:35:41;12.00;99.90
47382;DHT22;33128;51.580;5.170;2024-01-15T02:38:06;12.10;99.90
47382;DHT22;33128;51.580;5.170;2024-01-15T02:40:32;12.00;99.90
47382;DHT22;33128;51.580;5.170;2024-01-15T02:42:58;12.00;99.90
47382;DHT22;33128;51.580;5.170;2024-01-15T02:45:24;12.00;99.90
47382;DHT22;33128;51.580;5.170;2024-01-15T02:47:49;12.00;99.90
47382;DHT22;33128;51.580;5.170;2024-01-15T02:50:15;12.00;99.90
47382;DHT22;33128;51.580;5.170;2024-01-15T02:52:44;11.90;99.90
47382;DHT22;33128;51.580;5.170;2024-01-15T02:55:10;12.00;99.90
47382;DHT22;33128;51.580;5.170;2024-01-15T02:57:35;12.00;99.90
47382;DHT22;33128;51.580;5.170;2024-01-15T03:00:04;11.90;99.90
47382;DHT22;33128;51.580;5.170;2024-01-15T03:02:30;11.90;99.90
47382;DHT22;33128;51.580;5.170;2024-01-15T03:04:58;11.90;99.90
47382;DHT22;33128;51.580;5.170;2024-01-15T03:07:24;11.90;99.90
47382;DHT22;33128;51.580;5.170;2024-01-15T03:09:49;11.90;99.90
47382;DHT22;33128;51.580;5.170;2024-01-15T03:12:15;11.90;99.90
47382;DHT22;33128;51.580;5.170;2024-01-15T03:14:41;11.90;99.90
47382;DHT22;33128;51.580;5.170;2024-01-15T03:17:06;12.00;99.90
47382;DHT22;33128;51.580;5.170;2024-01-15T03:19:35;12.00;99.90
47382;DHT22;33128;51.580;5.170;2024-01-15T03:22:00;11.90;99.90
47382;DHT22;33128;51.580;5.170;2024-01-15T03:24:28;11.90;99.90
47382;DHT22;33128;51.580;5.170;2024-01-15T03:26:53;11.90;99.90
47382;DHT22;33128;51.580;5.170;2024-01-15T03:29:19;11.90;99.90
47382;DHT22;33128;51.580;5.170;2024-01-15T03:31:44;11.90;99.90
47382;DHT22;33128;51.580;5.170;2024-01-15T03:34:11;11.90;99.90
47382;DHT22;33128;51.580;5.170;2024-01-15T03:36:36;11.90;99.90
47382;DHT22;33128;51.580;5.170;2024-01-15T03:39:02;11.90;99.90
47382;DHT22;33128;51.580;5.170;2024-01-15T03:41:28;11.90;99.90
47382;DHT22;33128;51.580;5.170;2024-01-15T03:43:53;11.90;99.90
47382;DHT22;33128;51.580;5.170;2024-01-15T03:46:19;11.90;99.90
47382;DHT22;33128;51.580;5.170;2024-01-15T03:48:47;11.90;99.90
47382;DHT22;33128;51.580;5.170;2024-01-15T03:51:15;11.90;99.90
47382;DHT22;33128;51.580;5.170;2024-01-15T03:53:40;12.00;99.90
47382;DHT22;33128;51.580;5.170;2024-01-15T03:56:06;11.90;99.90
47382;DHT22;33128;51.580;5.170;2024-01-15T03:58:31;11.90;99.90
47382;DHT22;33128;51.580;5.170;2024-01-15T04:00:57;11.90;99.90
47382;DHT22;33128;51.580;5.170;2024-01-15T04:03:22;11.90;99.90
47382;DHT22;33128;51.580;5.170;2024-01-15T04:05:48;11.90;99.90
47382;DHT22;33128;51.580;5.170;2024-01-15T04:08:14;11.90;99.90
47382;DHT22;33128;51.580;5.170;2024-01-15T04:10:39;11.90;99.90
47382;DHT22;33128;51.580;5.170;2024-01-15T04:13:05;11.90;99.90
47382;DHT22;33128;51.580;5.170;2024-01-15T04:15:30;11.80;99.90
47382;DHT22;33128;51.580;5.170;2024-01-15T04:17:56;11.90;99.90
47382;DHT22;33128;51.580;5.170;2024-01-15T04:20:21;11.90;99.90
47382;DHT22;33128;51.580;5.170;2024-01-15T04:22:50;11.80;99.90
47382;DHT22;33128;51.580;5.170;2024-01-15T04:25:16;11.80;99.90
47382;DHT22;33128;51.580;5.170;2024-01-15T04:27:41;11.90;99.90
47382;DHT22;33128;51.580;5.170;2024-01-15T04:30:07;11.80;99.90
47382;DHT22;33128;51.580;5.170;2024-01-15T04:32:33;11.80;99.90
47382;DHT22;33128;51.580;5.170;2024-01-15T04:34:58;11.80;99.90
47382;DHT22;33128;51.580;5.170;2024-01-15T04:37:24;11.80;99.90
47382;DHT22;33128;51.580;5.170;2024-01-15T04:39:53;11.80;99.90
47382;DHT22;33128;51.580;5.170;2024-01-15T04:42:21;11.80;99.90
47382;DHT22;33128;51.580;5.170;2024-01-15T04:44:47;11.70;99.90
47382;DHT22;33128;51.580;5.170;2024-01-15T04:47:12;11.80;99.90
47382;DHT22;33128;51.580;5.170;2024-01-15T04:49:38;11.70;99.90
47382;DHT22;33128;51.580;5.170;2024-01-15T04:52:06;11.70;99.90
47382;DHT22;33128;51.580;5.170;2024-01-15T04:54:32;11.70;99.90
47382;DHT22;33128;51.580;5.170;2024-01-15T04:56:57;11.70;99.90
47382;DHT22;33128;51.580;5.170;2024-01-15T04:59:26;11.70;99.90
47382;DHT22;33128;51.580;5.170;2024-01-15T05:01:52;11.70;99.90
47382;DHT22;33128;51.580;5.170;2024-01-15T05:04:17;11.70;99.90
47382;DHT22;33128;51.580;5.170;2024-01-15T05:06:43;11.70;99.90
47382;DHT22;33128;51.580;5.170;2024-01-15T05:09:08;11.70;99.90
47382;DHT22;33128;51.580;5.170;2024-01-15T05:11:34;11.70;99.90
47382;DHT22;33128;51.580;5.170;2024-01-15T05:13:59;11.70;99.90
47382;DHT22;33128;51.580;5.170;2024-01-15T05:16:25;11.70;99.90
47382;DHT22;33128;51.580;5.170;2024-01-15T05:18:50;11.70;99.90
47382;DHT22;33128;51.580;5.170;2024-01-15T05:21:16;11.70;99.90
47382;DHT22;33128;51.580;5.170;2024-01-15T05:23:41;11.80;99.90
47382;DHT22;33128;51.580;5.170;2024-01-15T05:26:07;11.70;99.90
47382;DHT22;33128;51.580;5.170;2024-01-15T05:28:34;11.70;99.90
47382;DHT22;33128;51.580;5.170;2024-01-15T05:31:00;11.70;99.90
47382;DHT22;33128;51.580;5.170;2024-01-15T05:33:26;11.70;99.90
47382;DHT22;33128;51.580;5.170;2024-01-15T05:35:51;11.70;99.90
47382;DHT22;33128;51.580;5.170;2024-01-15T05:38:17;11.70;99.90
47382;DHT22;33128;51.580;5.170;2024-01-15T05:40:43;11.70;99.90
47382;DHT22;33128;51.580;5.170;2024-01-15T05:43:08;11.80;99.90
47382;DHT22;33128;51.580;5.170;2024-01-15T05:45:38;11.80;99.90
47382;DHT22;33128;51.580;5.170;2024-01-15T05:48:04;11.80;99.90
47382;DHT22;33128;51.580;5.170;2024-01-15T05:50:30;11.80;99.90
47382;DHT22;33128;51.580;5.170;2024-01-15T05:52:55;11.80;99.90
47382;DHT22;33128;51.580;5.170;2024-01-15T05:55:21;11.80;99.90
47382;DHT22;33128;51.580;5.170;2024-01-15T05:57:46;11.80;99.90
47382;DHT22;33128;51.580;5.170;2024-01-15T06:00:12;11.80;99.90
47382;DHT22;33128;51.580;5.170;2024-01-15T06:02:38;11.80;99.90
47382;DHT22;33128;51.580;5.170;2024-01-15T06:05:05;11.80;99.90
47382;DHT22;33128;51.580;5.170;2024-01-15T06:07:30;11.80;99.90
47382;DHT22;33128;51.580;5.170;2024-01-15T06:09:56;11.70;99.90
47382;DHT22;33128;51.580;5.170;2024-01-15T06:12:24;11.80;99.90
47382;DHT22;33128;51.580;5.170;2024-01-15T06:14:50;11.80;99.90
47382;DHT22;33128;51.580;5.170;2024-01-15T06:17:16;11.80;99.90
47382;DHT22;33128;51.580;5.170;2024-01-15T06:19:41;11.80;99.90
47382;DHT22;33128;51.580;5.170;2024-01-15T06:22:07;11.80;99.90
47382;DHT22;33128;51.580;5.170;2024-01-15T06:24:32;11.80;99.90
47382;DHT22;33128;51.580;5.170;2024-01-15T06:26:59;11.90;99.90
47382;DHT22;33128;51.580;5.170;2024-01-15T06:29:26;12.00;99.90
47382;DHT22;33128;51.580;5.170;2024-01-15T06:31:52;12.00;99.90
47382;DHT22;33128;51.580;5.170;2024-01-15T06:34:17;12.00;99.90
47382;DHT22;33128;51.580;5.170;2024-01-15T06:36:43;12.10;99.90
47382;DHT22;33128;51.580;5.170;2024-01-15T06:39:10;12.00;99.90
47382;DHT22;33128;51.580;5.170;2024-01-15T06:41:36;12.00;99.90
47382;DHT22;33128;51.580;5.170;2024-01-15T06:44:12;12.00;99.90
47382;DHT22;33128;51.580;5.170;2024-01-15T06:46:45;12.00;99.90
47382;DHT22;33128;51.580;5.170;2024-01-15T06:49:11;12.00;99.90
47382;DHT22;33128;51.580;5.170;2024-01-15T06:51:37;12.30;99.90
47382;DHT22;33128;51.580;5.170;2024-01-15T06:54:03;12.70;99.90
47382;DHT22;33128;51.580;5.170;2024-01-15T06:56:29;13.10;99.90
47382;DHT22;33128;51.580;5.170;2024-01-15T06:58:54;13.50;99.90
47382;DHT22;33128;51.580;5.170;2024-01-15T07:01:20;13.80;99.90
47382;DHT22;33128;51.580;5.170;2024-01-15T07:03:46;14.00;99.90
47382;DHT22;33128;51.580;5.170;2024-01-15T07:06:11;14.20;99.90
47382;DHT22;33128;51.580;5.170;2024-01-15T07:08:40;14.20;99.90
47382;DHT22;33128;51.580;5.170;2024-01-15T07:11:06;14.30;99.90
47382;DHT22;33128;51.580;5.170;2024-01-15T07:13:32;14.40;99.90
47382;DHT22;33128;51.580;5.170;2024-01-15T07:15:57;14.40;99.90
47382;DHT22;33128;51.580;5.170;2024-01-15T07:18:26;14.40;99.90
47382;DHT22;33128;51.580;5.170;2024-01-15T07:20:51;14.40;99.90
47382;DHT22;33128;51.580;5.170;2024-01-15T07:23:17;14.30;99.90
47382;DHT22;33128;51.580;5.170;2024-01-15T07:25:43;14.30;99.90
47382;DHT22;33128;51.580;5.170;2024-01-15T07:28:09;14.20;99.90
47382;DHT22;33128;51.580;5.170;2024-01-15T07:30:37;14.10;99.90
47382;DHT22;33128;51.580;5.170;2024-01-15T07:33:04;14.10;99.90
47382;DHT22;33128;51.580;5.170;2024-01-15T07:35:30;14.20;99.90
47382;DHT22;33128;51.580;5.170;2024-01-15T07:37:56;14.20;99.90
47382;DHT22;33128;51.580;5.170;2024-01-15T07:40:22;14.10;99.90
47382;DHT22;33128;51.580;5.170;2024-01-15T07:42:47;14.10;99.90
47382;DHT22;33128;51.580;5.170;2024-01-15T07:45:15;14.20;99.90
47382;DHT22;33128;51.580;5.170;2024-01-15T07:47:41;14.20;99.90
47382;DHT22;33128;51.580;5.170;2024-01-15T07:50:08;14.20;99.90
47382;DHT22;33128;51.580;5.170;2024-01-15T07:52:33;14.20;99.90
47382;DHT22;33128;51.580;5.170;2024-01-15T07:54:59;14.30;99.90
47382;DHT22;33128;51.580;5.170;2024-01-15T07:57:32;14.40;99.90
47382;DHT22;33128;51.580;5.170;2024-01-15T07:59:57;14.40;99.90
47382;DHT22;33128;51.580;5.170;2024-01-15T08:02:23;14.40;99.90
47382;DHT22;33128;51.580;5.170;2024-01-15T08:04:49;14.50;99.90
47382;DHT22;33128;51.580;5.170;2024-01-15T08:07:14;14.50;99.90
47382;DHT22;33128;51.580;5.170;2024-01-15T08:09:40;14.70;99.90
47382;DHT22;33128;51.580;5.170;2024-01-15T08:12:06;14.90;99.90
47382;DHT22;33128;51.580;5.170;2024-01-15T08:14:32;15.00;99.90
47382;DHT22;33128;51.580;5.170;2024-01-15T08:16:57;15.00;99.90
47382;DHT22;33128;51.580;5.170;2024-01-15T08:19:23;15.00;99.90
47382;DHT22;33128;51.580;5.170;2024-01-15T08:21:51;14.70;99.90
47382;DHT22;33128;51.580;5.170;2024-01-15T08:24:17;14.60;99.90
47382;DHT22;33128;51.580;5.170;2024-01-15T08:26:43;14.50;99.90
47382;DHT22;33128;51.580;5.170;2024-01-15T08:29:08;14.20;99.90
47382;DHT22;33128;51.580;5.170;2024-01-15T08:31:36;14.10;99.90
47382;DHT22;33128;51.580;5.170;2024-01-15T08:34:02;14.10;99.90
47382;DHT22;33128;51.580;5.170;2024-01-15T08:36:28;14.10;99.90
47382;DHT22;33128;51.580;5.170;2024-01-15T08:38:56;14.40;99.90
47382;DHT22;33128;51.580;5.170;2024-01-15T08:41:22;14.60;99.90
47382;DHT22;33128;51.580;5.170;2024-01-15T08:43:48;14.70;99.90
47382;DHT22;33128;51.580;5.170;2024-01-15T08:46:14;14.90;99.90
47382;DHT22;33128;51.580;5.170;2024-01-15T08:48:40;14.90;99.90
47382;DHT22;33128;51.580;5.170;2024-01-15T08:51:06;15.00;99.90
47382;DHT22;33128;51.580;5.170;2024-01-15T08:53:31;15.00;99.90
47382;DHT22;33128;51.580;5.170;2024-01-15T08:55:58;15.00;99.90
47382;DHT22;33128;51.580;5.170;2024-01-15T08:58:24;15.00;99.90
47382;DHT22;33128;51.580;5.170;2024-01-15T09:00:50;14.90;99.90
47382;DHT22;33128;51.580;5.170;2024-01-15T09:03:16;15.10;99.90
47382;DHT22;33128;51.580;5.170;2024-01-15T09:05:41;15.20;99.90
47382;DHT22;33128;51.580;5.170;2024-01-15T09:08:08;15.20;99.90
47382;DHT22;33128;51.580;5.170;2024-01-15T09:10:33;15.30;99.90
47382;DHT22;33128;51.580;5.170;2024-01-15T09:12:59;15.40;99.90
47382;DHT22;33128;51.580;5.170;2024-01-15T09:15:25;15.40;99.90
47382;DHT22;33128;51.580;5.170;2024-01-15T09:17:51;15.40;99.90
47382;DHT22;33128;51.580;5.170;2024-01-15T09:20:16;15.50;99.90
47382;DHT22;33128;51.580;5.170;2024-01-15T09:22:42;15.40;99.90
47382;DHT22;33128;51.580;5.170;2024-01-15T09:25:11;15.30;99.90
47382;DHT22;33128;51.580;5.170;2024-01-15T09:27:39;15.40;99.90
47382;DHT22;33128;51.580;5.170;2024-01-15T09:30:05;15.40;99.90
47382;DHT22;33128;51.580;5.170;2024-01-15T09:32:31;15.30;99.90
47382;DHT22;33128;51.580;5.170;2024-01-15T09:34:58;15.30;99.90
47382;DHT22;33128;51.580;5.170;2024-01-15T09:37:23;15.30;99.90
47382;DHT22;33128;51.580;5.170;2024-01-15T09:39:49;15.40;99.90
47382;DHT22;33128;51.580;5.170;2024-01-15T09:42:16;15.10;99.90
47382;DHT22;33128;51.580;5.170;2024-01-15T09:44:41;15.20;99.90
47382;DHT22;33128;51.580;5.170;2024-01-15T09:47:07;15.20;99.90
47382;DHT22;33128;51.580;5.170;2024-01-15T09:49:33;15.20;99.90
47382;DHT22;33128;51.580;5.170;2024-01-15T09:51:59;15.20;99.90
47382;DHT22;33128;51.580;5.170;2024-01-15T09:54:26;15.30;99.90
47382;DHT22;33128;51.580;5.170;2024-01-15T09:56:51;15.30;99.90
47382;DHT22;33128;51.580;5.170;2024-01-15T09:59:18;15.20;99.90
47382;DHT22;33128;51.580;5.170;2024-01-15T10:01:45;15.20;99.90
47382;DHT22;33128;51.580;5.170;2024-01-15T10:04:14;15.20;99.90
47382;DHT22;33128;51.580;5.170;2024-01-15T10:06:43;15.30;99.90
47382;DHT22;33128;51.580;5.170;2024-01-15T10:09:12;15.20;99.90
47382;DHT22;33128;51.580;5.170;2024-01-15T10:11:41;15.20;99.90
47382;DHT22;33128;51.580;5.170;2024-01-15T10:14:08;15.20;99.90
47382;DHT22;33128;51.580;5.170;2024-01-15T10:16:34;15.20;99.90
47382;DHT22;33128;51.580;5.170;2024-01-15T10:18:59;15.40;99.90
47382;DHT22;33128;51.580;5.170;2024-01-15T10:21:25;15.50;99.90
47382;DHT22;33128;51.580;5.170;2024-01-15T10:23:52;15.40;99.90
47382;DHT22;33128;51.580;5.170;2024-01-15T10:26:17;15.10;99.90
47382;DHT22;33128;51.580;5.170;2024-01-15T10:28:43;15.00;99.90
47382;DHT22;33128;51.580;5.170;2024-01-15T10:31:08;15.00;99.90
47382;DHT22;33128;51.580;5.170;2024-01-15T10:33:35;15.00;99.90
47382;DHT22;33128;51.580;5.170;2024-01-15T10:36:00;14.70;99.90
47382;DHT22;33128;51.580;5.170;2024-01-15T10:38:26;14.80;99.90
47382;DHT22;33128;51.580;5.170;2024-01-15T10:40:56;14.90;99.90
47382;DHT22;33128;51.580;5.170;2024-01-15T10:43:22;14.60;99.90
47382;DHT22;33128;51.580;5.170;2024-01-15T10:45:49;14.30;99.90
47382;DHT22;33128;51.580;5.170;2024-01-15T10:48:16;14.10;99.90
47382;DHT22;33128;51.580;5.170;2024-01-15T10:50:46;12.90;99.80
47382;DHT22;33128;51.580;5.170;2024-01-15T10:53:16;11.70;99.90
47382;DHT22;33128;51.580;5.170;2024-01-15T10:55:42;10.70;99.90
47382;DHT22;33128;51.580;5.170;2024-01-15T10:58:09;9.90;99.90
47382;DHT22;33128;51.580;5.170;2024-01-15T11:00:38;9.60;99.90
47382;DHT22;33128;51.580;5.170;2024-01-15T11:03:05;10.50;99.90
47382;DHT22;33128;51.580;5.170;2024-01-15T11:05:37;10.40;99.90
47382;DHT22;33128;51.580;5.170;2024-01-15T11:08:09;10.00;99.90
47382;DHT22;33128;51.580;5.170;2024-01-15T11:13:03;9.30;99.90
47382;DHT22;33128;51.580;5.170;2024-01-15T11:15:30;9.20;99.90
47382;DHT22;33128;51.580;5.170;2024-01-15T11:17:59;9.30;99.90
47382;DHT22;33128;51.580;5.170;2024-01-15T11:20:29;9.50;99.90
47382;DHT22;33128;51.580;5.170;2024-01-15T11:22:56;8.80;99.90
47382;DHT22;33128;51.580;5.170;2024-01-15T11:25:24;8.30;99.90
47382;DHT22;33128;51.580;5.170;2024-01-15T11:27:59;7.70;99.90
47382;DHT22;33128;51.580;5.170;2024-01-15T11:30:25;7.40;99.90
47382;DHT22;33128;51.580;5.170;2024-01-15T11:32:52;7.80;99.90
47382;DHT22;33128;51.580;5.170;2024-01-15T11:35:17;8.30;99.90
47382;DHT22;33128;51.580;5.170;2024-01-15T11:43:18;8.40;99.90
47382;DHT22;33128;51.580;5.170;2024-01-15T11:45:50;8.70;99.90
47382;DHT22;33128;51.580;5.170;2024-01-15T11:48:17;8.30;99.90
47382;DHT22;33128;51.580;5.170;2024-01-15T11:50:47;8.20;99.90
47382;DHT22;33128;51.580;5.170;2024-01-15T11:53:37;8.40;99.90
47382;DHT22;33128;51.580;5.170;2024-01-15T11:56:14;8.40;99.90
47382;DHT22;33128;51.580;5.170;2024-01-15T11:58:40;8.40;99.90
47382;DHT22;33128;51.580;5.170;2024-01-15T12:01:05;8.30;99.90
47382;DHT22;33128;51.580;5.170;2024-01-15T12:03:32;8.70;99.90
47382;DHT22;33128;51.580;5.170;2024-01-15T12:05:59;8.90;99.90
47382;DHT22;33128;51.580;5.170;2024-01-15T12:08:31;8.80;99.90
47382;DHT22;33128;51.580;5.170;2024-01-15T12:10:57;9.90;99.90
47382;DHT22;33128;51.580;5.170;2024-01-15T12:13:22;11.00;99.90
47382;DHT22;33128;51.580;5.170;2024-01-15T12:15:48;11.50;99.90
47382;DHT22;33128;51.580;5.170;2024-01-15T12:18:15;12.00;99.90
47382;DHT22;33128;51.580;5.170;2024-01-15T12:20:43;12.30;99.90
47382;DHT22;33128;51.580;5.170;2024-01-15T12:23:12;12.40;99.90
47382;DHT22;33128;51.580;5.170;2024-01-15T12:25:39;12.50;99.90
47382;DHT22;33128;51.580;5.170;2024-01-15T12:28:05;12.70;99.90
47382;DHT22;33128;51.580;5.170;2024-01-15T12:30:33;12.80;99.90
47382;DHT22;33128;51.580;5.170;2024-01-15T12:33:01;12.90;99.90
47382;DHT22;33128;51.580;5.170;2024-01-15T12:35:29;13.00;99.90
47382;DHT22;33128;51.580;5.170;2024-01-15T12:37:55;13.20;99.90
47382;DHT22;33128;51.580;5.170;2024-01-15T12:40:21;13.20;99.90
47382;DHT22;33128;51.580;5.170;2024-01-15T12:42:47;13.70;99.90
47382;DHT22;33128;51.580;5.170;2024-01-15T12:45:13;13.90;99.90
47382;DHT22;33128;51.580;5.170;2024-01-15T12:47:40;13.90;99.90
47382;DHT22;33128;51.580;5.170;2024-01-15T12:50:07;13.70;99.90
47382;DHT22;33128;51.580;5.170;2024-01-15T12:52:33;13.50;99.90
47382;DHT22;33128;51.580;5.170;2024-01-15T12:54:59;13.20;99.90
47382;DHT22;33128;51.580;5.170;2024-01-15T12:57:24;13.10;99.90
47382;DHT22;33128;51.580;5.170;2024-01-15T12:59:50;12.90;99.90
47382;DHT22;33128;51.580;5.170;2024-01-15T13:02:16;13.00;99.90
47382;DHT22;33128;51.580;5.170;2024-01-15T13:04:45;13.10;99.90
47382;DHT22;33128;51.580;5.170;2024-01-15T13:07:10;13.10;99.90
47382;DHT22;33128;51.580;5.170;2024-01-15T13:09:36;13.00;99.90
47382;DHT22;33128;51.580;5.170;2024-01-15T13:12:02;13.00;99.90
47382;DHT22;33128;51.580;5.170;2024-01-15T13:14:28;13.10;99.90
47382;DHT22;33128;51.580;5.170;2024-01-15T13:16:54;13.10;99.90
47382;DHT22;33128;51.580;5.170;2024-01-15T13:19:21;13.20;99.90
47382;DHT22;33128;51.580;5.170;2024-01-15T13:21:47;13.20;99.90
47382;DHT22;33128;51.580;5.170;2024-01-15T13:24:13;13.30;99.90
47382;DHT22;33128;51.580;5.170;2024-01-15T13:26:45;13.50;99.90
47382;DHT22;33128;51.580;5.170;2024-01-15T13:29:11;13.50;99.90
47382;DHT22;33128;51.580;5.170;2024-01-15T13:31:36;13.60;99.90
47382;DHT22;33128;51.580;5.170;2024-01-15T13:34:03;13.70;99.90
47382;DHT22;33128;51.580;5.170;2024-01-15T13:36:29;13.70;99.90
47382;DHT22;33128;51.580;5.170;2024-01-15T13:38:55;13.80;99.90
47382;DHT22;33128;51.580;5.170;2024-01-15T13:41:21;14.00;99.90
47382;DHT22;33128;51.580;5.170;2024-01-15T13:43:55;14.10;99.90
47382;DHT22;33128;51.580;5.170;2024-01-15T13:46:24;14.10;99.90
47382;DHT22;33128;51.580;5.170;2024-01-15T13:48:54;14.10;99.90
47382;DHT22;33128;51.580;5.170;2024-01-15T13:51:22;14.20;99.90
47382;DHT22;33128;51.580;5.170;2024-01-15T13:53:48;14.20;99.90
47382;DHT22;33128;51.580;5.170;2024-01-15T13:56:15;14.10;99.90
47382;DHT22;33128;51.580;5.170;2024-01-15T13:58:40;13.90;99.90
47382;DHT22;33128;51.580;5.170;2024-01-15T14:01:06;13.80;99.90
47382;DHT22;33128;51.580;5.170;2024-01-15T14:03:32;13.90;99.90
47382;DHT22;33128;51.580;5.170;2024-01-15T14:05:58;13.80;99.90
47382;DHT22;33128;51.580;5.170;2024-01-15T14:08:24;13.90;99.90
47382;DHT22;33128;51.580;5.170;2024-01-15T14:10:49;14.00;99.90
47382;DHT22;33128;51.580;5.170;2024-01-15T14:13:15;14.20;99.90
47382;DHT22;33128;51.580;5.170;2024-01-15T14:15:41;14.40;99.90
47382;DHT22;33128;51.580;5.170;2024-01-15T14:18:06;14.60;99.90
47382;DHT22;33128;51.580;5.170;2024-01-15T14:20:32;14.70;99.90
47382;DHT22;33128;51.580;5.170;2024-01-15T14:22:58;14.50;99.90
47382;DHT22;33128;51.580;5.170;2024-01-15T14:25:24;14.30;99.90
47382;DHT22;33128;51.580;5.170;2024-01-15T14:27:49;14.10;99.90
47382;DHT22;33128;51.580;5.170;2024-01-15T14:30:15;14.00;99.90
47382;DHT22;33128;51.580;5.170;2024-01-15T14:32:42;13.90;99.90
47382;DHT22;33128;51.580;5.170;2024-01-15T14:35:08;13.90;99.90
47382;DHT22;33128;51.580;5.170;2024-01-15T14:37:39;13.90;99.90
47382;DHT22;33128;51.580;5.170;2024-01-15T14:40:07;13.80;99.90
47382;DHT22;33128;51.580;5.170;2024-01-15T14:42:34;13.90;99.90
47382;DHT22;33128;51.580;5.170;2024-01-15T14:45:00;13.80;99.90
47382;DHT22;33128;51.580;5.170;2024-01-15T14:47:31;13.70;99.90
47382;DHT22;33128;51.580;5.170;2024-01-15T14:49:56;13.60;99.90
47382;DHT22;33128;51.580;5.170;2024-01-15T14:52:23;13.50;99.90
47382;DHT22;33128;51.580;5.170;2024-01-15T14:54:49;13.60;99.90
47382;DHT22;33128;51.580;5.170;2024-01-15T14:57:23;13.70;99.90
47382;DHT22;33128;51.580;5.170;2024-01-15T14:59:49;13.70;99.90
47382;DHT22;33128;51.580;5.170;2024-01-15T15:02:14;13.60;99.90
47382;DHT22;33128;51.580;5.170;2024-01-15T15:04:40;13.70;99.90
47382;DHT22;33128;51.580;5.170;2024-01-15T15:07:07;13.70;99.90
47382;DHT22;33128;51.580;5.170;2024-01-15T15:09:32;13.70;99.90
47382;DHT22;33128;51.580;5.170;2024-01-15T15:11:58;13.60;99.90
47382;DHT22;33128;51.580;5.170;2024-01-15T15:14:24;13.70;99.90
47382;DHT22;33128;51.580;5.170;2024-01-15T15:16:49;13.70;99.90
47382;DHT22;33128;51.580;5.170;2024-01-15T15:19:15;13.60;99.90
47382;DHT22;33128;51.580;5.170;2024-01-15T15:21:42;13.60;99.90
47382;DHT22;33128;51.580;5.170;2024-01-15T15:24:08;13.50;99.90
47382;DHT22;33128;51.580;5.170;2024-01-15T15:26:34;13.50;99.90
47382;DHT22;33128;51.580;5.170;2024-01-15T15:28:59;13.50;99.90
47382;DHT22;33128;51.580;5.170;2024-01-15T15:31:25;13.50;99.90
47382;DHT22;33128;51.580;5.170;2024-01-15T15:33:51;13.50;99.90
47382;DHT22;33128;51.580;5.170;2024-01-15T15:36:16;13.50;99.90